Time;durP1;ratioP1;P1;durP2;ratioP2;P2;SDS_P1;SDS_P2;PMS_P1;PMS_P2;Temp;Humidity;BMP_temperature;BMP_pressure;BME280_temperature;BME280_humidity;BME280_pressure;Samples;Min_cycle;Max_cycle;Signal;HPM_P1;HPM_P2
2021/04/26 00:00:02;;;;;;;4.47;0.55;;;3.60;82.90;;;;;;4951344;28;20082;-85
2021/04/26 00:02:33;;;;;;;8.48;1.15;;;3.60;82.90;;;;;;4947086;29;20035;-86
2021/04/26 00:04:58;;;;;;;4.78;1.35;;;3.50;83.00;;;;;;4948860;29;20039;-86
2021/04/26 00:07:26;;;;;;;3.90;0.70;;;3.50;83.00;;;;;;4953790;28;20019;-86
2021/04/26 00:09:55;;;;;;;5.35;0.90;;;3.40;83.10;;;;;;4940757;28;20583;-86
2021/04/26 00:12:20;;;;;;;5.85;1.17;;;3.40;83.20;;;;;;4964129;28;20034;-87
2021/04/26 00:14:46;;;;;;;7.35;0.73;;;3.40;83.40;;;;;;4954179;28;20047;-86
2021/04/26 00:17:11;;;;;;;9.13;1.17;;;3.40;83.40;;;;;;4941809;29;20106;-86
2021/04/26 00:19:37;;;;;;;4.95;0.82;;;3.40;83.30;;;;;;4950314;28;20040;-86
2021/04/26 00:22:05;;;;;;;5.35;0.90;;;3.40;83.30;;;;;;4951981;28;20032;-86
2021/04/26 00:24:30;;;;;;;5.25;1.20;;;3.40;83.30;;;;;;4936648;29;20032;-86
2021/04/26 00:26:56;;;;;;;4.97;1.00;;;3.40;83.30;;;;;;4951000;28;20078;-86
2021/04/26 00:29:21;;;;;;;6.07;0.95;;;3.40;83.50;;;;;;4939130;29;20038;-86
2021/04/26 00:31:47;;;;;;;5.65;0.88;;;3.40;83.60;;;;;;4965010;28;20069;-86
2021/04/26 00:34:12;;;;;;;5.00;0.80;;;3.30;83.60;;;;;;4952259;29;20023;-86
2021/04/26 00:36:40;;;;;;;7.03;0.93;;;3.30;83.60;;;;;;4949166;28;20027;-86
2021/04/26 00:39:06;;;;;;;5.53;0.77;;;3.30;83.70;;;;;;4953658;28;20400;-86
2021/04/26 00:41:31;;;;;;;7.88;0.90;;;3.30;83.80;;;;;;4953293;28;20024;-86
2021/04/26 00:43:57;;;;;;;9.40;0.98;;;3.30;83.80;;;;;;4942291;28;20091;-86
2021/04/26 00:46:23;;;;;;;4.50;1.10;;;3.30;83.80;;;;;;4971026;28;20043;-86
2021/04/26 00:48:48;;;;;;;4.97;0.70;;;3.30;84.00;;;;;;4948020;29;20042;-86
2021/04/26 00:51:16;;;;;;;5.28;1.83;;;3.20;84.00;;;;;;4969956;28;20485;-86
2021/04/26 00:53:45;;;;;;;12.98;1.08;;;3.20;83.80;;;;;;4947637;28;20031;-85
2021/04/26 00:56:13;;;;;;;6.32;0.88;;;3.20;83.80;;;;;;4960527;28;20035;-86
2021/04/26 00:58:39;;;;;;;8.82;1.30;;;3.20;83.80;;;;;;4949177;28;20455;-86
2021/04/26 01:01:10;;;;;;;5.50;0.93;;;3.10;84.00;;;;;;4937845;28;20063;-86
2021/04/26 01:03:38;;;;;;;6.68;1.17;;;3.10;83.90;;;;;;4950475;28;20110;-86
2021/04/26 01:06:04;;;;;;;7.22;0.90;;;3.10;84.00;;;;;;4951300;28;20038;-86
2021/04/26 01:08:29;;;;;;;2.80;0.80;;;3.00;84.10;;;;;;4941566;29;20031;-86
2021/04/26 01:10:58;;;;;;;5.57;0.85;;;3.00;84.80;;;;;;4955481;28;20050;-86
2021/04/26 01:13:33;;;;;;;8.13;1.08;;;3.00;84.20;;;;;;4951787;29;20034;-86
2021/04/26 01:16:07;;;;;;;5.45;0.73;;;3.00;84.20;;;;;;4965176;28;20032;-86
2021/04/26 01:18:46;;;;;;;5.85;0.80;;;3.00;84.20;;;;;;4944662;29;20023;-86
2021/04/26 01:21:49;;;;;;;4.43;0.70;;;2.90;84.10;;;;;;4951603;29;20110;-86
2021/04/26 01:24:51;;;;;;;7.03;1.73;;;2.90;84.00;;;;;;4941959;28;20035;-86
2021/04/26 01:27:23;;;;;;;6.05;1.13;;;2.90;84.10;;;;;;4950100;28;20062;-86
2021/04/26 01:30:07;;;;;;;7.75;1.35;;;2.80;84.00;;;;;;4962502;28;20095;-86
2021/04/26 01:33:02;;;;;;;10.13;1.10;;;2.80;84.10;;;;;;4945078;29;20036;-86
2021/04/26 01:35:31;;;;;;;6.13;1.02;;;2.90;84.10;;;;;;4953001;28;20035;-87
2021/04/26 01:38:07;;;;;;;6.82;1.42;;;2.80;84.20;;;;;;4942070;29;20034;-86
2021/04/26 01:40:34;;;;;;;5.20;1.17;;;2.70;84.20;;;;;;4949486;28;20030;-86
2021/04/26 01:43:01;;;;;;;4.50;0.65;;;2.70;84.20;;;;;;4937341;29;20621;-86
2021/04/26 01:45:28;;;;;;;7.05;1.05;;;2.70;84.40;;;;;;4945572;29;20054;-86
2021/04/26 01:47:56;;;;;;;4.95;0.88;;;2.60;84.40;;;;;;4949124;28;20479;-86
2021/04/26 01:50:24;;;;;;;5.03;1.40;;;2.60;84.40;;;;;;4942977;28;20036;-86
2021/04/26 01:52:51;;;;;;;8.90;1.33;;;2.60;84.50;;;;;;4934056;29;20041;-87
2021/04/26 01:55:24;;;;;;;7.95;1.27;;;2.50;84.50;;;;;;4937751;28;20038;-86
2021/04/26 01:57:52;;;;;;;7.00;1.13;;;2.50;84.80;;;;;;4936696;29;20031;-86
2021/04/26 02:00:32;;;;;;;5.25;1.23;;;2.40;84.70;;;;;;4965384;28;20063;-87
2021/04/26 02:02:59;;;;;;;5.07;0.90;;;2.40;84.90;;;;;;4928115;29;20126;-86
2021/04/26 02:05:26;;;;;;;5.72;0.85;;;2.40;85.00;;;;;;4937700;28;20118;-87
2021/04/26 02:07:52;;;;;;;5.35;0.65;;;2.30;85.00;;;;;;4936349;29;20023;-87
2021/04/26 02:10:20;;;;;;;4.78;0.90;;;2.30;85.20;;;;;;4956239;28;20055;-86
2021/04/26 02:12:48;;;;;;;6.35;0.80;;;2.30;85.30;;;;;;4955565;28;20469;-87
2021/04/26 02:15:19;;;;;;;8.50;1.50;;;2.30;85.50;;;;;;4936623;28;20028;-86
2021/04/26 02:17:46;;;;;;;3.65;1.02;;;2.30;85.60;;;;;;4944276;29;20026;-86
2021/04/26 02:20:14;;;;;;;7.85;1.20;;;2.30;85.50;;;;;;4949991;28;20098;-86
2021/04/26 02:22:40;;;;;;;4.63;1.13;;;2.30;85.50;;;;;;4939971;29;20020;-87
2021/04/26 02:25:15;;;;;;;5.03;0.70;;;2.30;85.50;;;;;;4946892;29;20380;-86
2021/04/26 02:27:43;;;;;;;4.68;1.35;;;2.30;85.60;;;;;;4941567;29;20040;-86
2021/04/26 02:30:10;;;;;;;7.45;1.23;;;2.30;85.70;;;;;;4958918;28;20039;-86
2021/04/26 02:32:52;;;;;;;4.85;1.10;;;2.30;85.70;;;;;;4959718;28;20110;-86
2021/04/26 02:35:34;;;;;;;5.30;1.00;;;2.20;85.70;;;;;;4946463;28;20115;-86
2021/04/26 02:38:08;;;;;;;3.92;0.65;;;2.20;85.80;;;;;;4955368;28;20163;-86
2021/04/26 02:40:51;;;;;;;8.43;1.73;;;2.10;85.90;;;;;;4961660;28;20035;-86
2021/04/26 02:43:17;;;;;;;5.28;1.05;;;2.10;85.90;;;;;;4961947;28;20024;-86
2021/04/26 02:45:50;;;;;;;9.55;0.95;;;2.10;86.00;;;;;;4951773;28;20035;-86
2021/04/26 02:48:19;;;;;;;5.70;1.40;;;2.10;86.10;;;;;;4953964;28;20028;-86
2021/04/26 02:50:50;;;;;;;3.92;0.80;;;2.00;86.20;;;;;;4960300;28;20141;-86
2021/04/26 02:53:18;;;;;;;3.42;0.90;;;2.00;86.40;;;;;;4947669;28;20510;-86
2021/04/26 02:55:46;;;;;;;6.00;1.13;;;2.00;86.50;;;;;;4958782;28;20039;-86
2021/04/26 02:58:12;;;;;;;4.95;1.13;;;2.00;86.60;;;;;;4941515;29;20023;-86
2021/04/26 03:00:38;;;;;;;4.78;1.02;;;2.00;86.50;;;;;;4968893;28;20101;-86
2021/04/26 03:03:04;;;;;;;7.90;1.25;;;1.90;86.50;;;;;;4936371;29;20079;-86
2021/04/26 03:05:30;;;;;;;6.47;1.92;;;1.90;86.70;;;;;;4942469;28;20059;-86
2021/04/26 03:08:04;;;;;;;6.10;0.82;;;1.90;86.80;;;;;;4937410;28;20114;-85
2021/04/26 03:10:31;;;;;;;5.93;1.20;;;1.90;86.80;;;;;;4951374;28;20160;-86
2021/04/26 03:12:57;;;;;;;3.67;1.10;;;1.90;86.90;;;;;;4945511;28;20403;-86
2021/04/26 03:15:26;;;;;;;5.95;0.80;;;1.90;87.00;;;;;;4959928;28;20094;-86
2021/04/26 03:17:52;;;;;;;6.78;1.23;;;1.80;87.00;;;;;;4942465;29;20032;-85
2021/04/26 03:20:20;;;;;;;9.00;1.42;;;1.80;87.10;;;;;;4927851;29;20039;-86
2021/04/26 03:22:49;;;;;;;7.72;1.17;;;1.80;87.20;;;;;;4943534;28;20023;-85
2021/04/26 03:25:19;;;;;;;7.55;1.00;;;1.80;87.30;;;;;;4961491;28;20031;-86
2021/04/26 03:27:46;;;;;;;6.38;0.85;;;1.70;87.30;;;;;;4937166;29;20020;-86
2021/04/26 03:30:15;;;;;;;7.72;1.00;;;1.70;87.50;;;;;;4959609;28;20051;-86
2021/04/26 03:32:42;;;;;;;9.95;1.42;;;1.60;87.50;;;;;;4944258;28;20053;-87
2021/04/26 03:35:13;;;;;;;6.20;1.05;;;1.60;87.50;;;;;;4947300;28;20049;-86
2021/04/26 03:37:40;;;;;;;8.25;1.50;;;1.60;87.60;;;;;;4959524;28;20107;-86
2021/04/26 03:40:07;;;;;;;6.97;1.65;;;1.60;87.70;;;;;;4956406;28;20032;-86
2021/04/26 03:42:36;;;;;;;2.75;1.05;;;1.60;87.80;;;;;;4960636;28;20027;-86
2021/04/26 03:45:06;;;;;;;7.25;0.95;;;1.50;87.70;;;;;;4933047;28;20103;-86
2021/04/26 03:47:34;;;;;;;3.28;1.00;;;1.50;87.80;;;;;;4953827;28;20016;-86
2021/04/26 03:50:00;;;;;;;3.55;0.80;;;1.50;88.00;;;;;;4944372;28;20035;-86
2021/04/26 03:52:25;;;;;;;8.60;1.17;;;1.50;87.90;;;;;;4948226;28;20020;-87
2021/04/26 03:54:54;;;;;;;7.65;1.33;;;1.50;87.90;;;;;;4952554;28;20404;-87
2021/04/26 03:57:19;;;;;;;5.47;1.17;;;1.50;88.10;;;;;;4935204;28;20024;-86
2021/04/26 03:59:45;;;;;;;4.03;1.38;;;1.40;88.20;;;;;;4934027;29;20051;-87
2021/04/26 04:02:11;;;;;;;5.43;1.05;;;1.40;88.20;;;;;;4945441;29;20035;-86
2021/04/26 04:04:36;;;;;;;6.50;1.15;;;1.40;88.10;;;;;;4959820;28;20074;-86
2021/04/26 04:07:02;;;;;;;8.55;1.23;;;1.40;88.20;;;;;;4940344;29;20494;-86
2021/04/26 04:09:29;;;;;;;3.42;1.00;;;1.40;88.40;;;;;;4952668;29;20042;-85
2021/04/26 04:11:54;;;;;;;9.45;1.45;;;1.40;88.50;;;;;;4964936;28;20032;-86
2021/04/26 04:14:20;;;;;;;5.30;1.00;;;1.40;88.40;;;;;;4942818;28;20516;-86
2021/04/26 04:16:48;;;;;;;6.45;0.93;;;1.40;88.50;;;;;;4933804;29;20054;-86
2021/04/26 04:19:13;;;;;;;9.20;1.20;;;1.40;88.60;;;;;;4939217;29;20028;-86
2021/04/26 04:21:39;;;;;;;6.90;1.00;;;1.40;88.70;;;;;;4969254;28;20547;-86
2021/04/26 04:24:10;;;;;;;4.68;0.93;;;1.40;88.80;;;;;;4954101;29;20552;-86
2021/04/26 04:26:36;;;;;;;8.45;1.98;;;1.40;88.90;;;;;;4940182;29;20027;-86
2021/04/26 04:29:04;;;;;;;10.00;1.45;;;1.40;89.00;;;;;;4941968;28;20083;-86
2021/04/26 04:31:29;;;;;;;2.30;0.90;;;1.40;89.00;;;;;;4953018;28;20063;-86
2021/04/26 04:33:55;;;;;;;5.38;1.40;;;1.40;89.00;;;;;;4942413;29;20060;-87
2021/04/26 04:36:20;;;;;;;5.25;1.08;;;1.40;89.10;;;;;;4947543;29;20070;-86
2021/04/26 04:38:46;;;;;;;4.20;1.05;;;1.40;89.20;;;;;;4973065;28;20019;-87
2021/04/26 04:41:11;;;;;;;5.50;1.15;;;1.40;89.20;;;;;;4961305;28;20046;-87
2021/04/26 04:43:43;;;;;;;6.45;1.10;;;1.30;89.20;;;;;;4962484;28;20045;-87
2021/04/26 04:46:08;;;;;;;7.00;1.20;;;1.40;89.30;;;;;;4946489;28;20055;-87
2021/04/26 04:48:34;;;;;;;6.75;1.20;;;1.40;89.50;;;;;;4958432;28;20043;-87
2021/04/26 04:50:59;;;;;;;5.68;1.10;;;1.40;89.50;;;;;;4955678;28;20027;-87
2021/04/26 04:53:25;;;;;;;9.15;2.45;;;1.40;89.40;;;;;;4941823;29;20032;-87
2021/04/26 04:55:50;;;;;;;7.15;1.45;;;1.40;89.30;;;;;;4946042;29;20129;-87
2021/04/26 04:58:18;;;;;;;6.78;1.20;;;1.40;89.40;;;;;;4958837;28;20027;-87
2021/04/26 05:00:44;;;;;;;5.25;1.08;;;1.40;89.50;;;;;;4960361;28;20038;-87
2021/04/26 05:03:09;;;;;;;6.13;1.20;;;1.40;89.50;;;;;;4955541;28;20029;-87
2021/04/26 05:05:35;;;;;;;4.78;1.45;;;1.40;89.50;;;;;;4945087;29;20031;-87
2021/04/26 05:08:01;;;;;;;5.72;0.95;;;1.50;89.60;;;;;;4941274;28;20035;-87
2021/04/26 05:10:29;;;;;;;6.18;1.40;;;1.50;89.60;;;;;;4948192;28;20411;-87
2021/04/26 05:12:55;;;;;;;8.82;1.17;;;1.60;89.70;;;;;;4962714;28;20051;-87
2021/04/26 05:15:21;;;;;;;6.18;1.25;;;1.70;89.70;;;;;;4950865;28;20062;-87
2021/04/26 05:17:46;;;;;;;4.78;1.02;;;1.70;89.50;;;;;;4945247;28;20440;-87
2021/04/26 05:20:14;;;;;;;7.32;1.67;;;1.80;89.50;;;;;;4940501;29;20034;-86
2021/04/26 05:22:40;;;;;;;7.53;1.10;;;1.80;89.40;;;;;;4942596;28;20827;-87
2021/04/26 05:25:08;;;;;;;6.20;1.40;;;1.90;89.40;;;;;;4955512;28;20027;-87
2021/04/26 05:27:38;;;;;;;4.80;1.00;;;2.00;89.30;;;;;;4953678;28;20047;-86
2021/04/26 05:30:08;;;;;;;4.80;1.73;;;2.10;89.30;;;;;;4953006;29;20057;-86
2021/04/26 05:32:36;;;;;;;4.47;1.00;;;2.10;89.20;;;;;;4945672;28;20035;-86
2021/04/26 05:35:05;;;;;;;8.25;1.30;;;2.20;89.20;;;;;;4961749;28;20042;-86
2021/04/26 05:37:31;;;;;;;10.40;1.50;;;2.30;89.20;;;;;;4943258;28;20439;-86
2021/04/26 05:39:57;;;;;;;6.55;1.15;;;2.30;89.00;;;;;;4953617;29;20028;-87
2021/04/26 05:42:26;;;;;;;6.22;1.33;;;2.40;89.10;;;;;;4956427;28;20023;-86
2021/04/26 05:44:52;;;;;;;5.60;1.05;;;2.50;88.90;;;;;;4940526;28;20382;-86
2021/04/26 05:47:21;;;;;;;12.57;1.98;;;2.60;89.10;;;;;;4941221;28;20027;-86
2021/04/26 05:49:46;;;;;;;5.22;1.30;;;2.80;88.90;;;;;;4944678;29;20023;-86
2021/04/26 05:52:12;;;;;;;7.20;1.88;;;2.90;88.60;;;;;;4950463;28;20055;-86
2021/04/26 05:54:40;;;;;;;6.32;1.25;;;3.10;88.40;;;;;;4959076;28;20078;-86
2021/04/26 05:57:10;;;;;;;6.30;1.58;;;3.30;88.10;;;;;;4940918;29;20066;-86
2021/04/26 05:59:36;;;;;;;5.95;1.10;;;3.40;87.60;;;;;;4959335;28;20043;-86
2021/04/26 06:02:04;;;;;;;6.53;1.55;;;3.60;87.90;;;;;;4941014;28;20036;-87
2021/04/26 06:04:29;;;;;;;5.65;1.27;;;3.80;86.90;;;;;;4941636;29;20462;-87
2021/04/26 06:06:55;;;;;;;5.20;1.17;;;3.90;86.50;;;;;;4969574;28;20105;-86
2021/04/26 06:09:24;;;;;;;7.35;1.23;;;4.00;86.10;;;;;;4949168;28;20028;-87
2021/04/26 06:11:50;;;;;;;5.63;1.30;;;4.10;85.70;;;;;;4937815;29;20095;-87
2021/04/26 06:14:21;;;;;;;3.75;1.40;;;4.20;85.30;;;;;;4955718;28;20600;-87
2021/04/26 06:16:46;;;;;;;6.50;1.00;;;4.30;85.10;;;;;;4947493;29;20023;-87
2021/04/26 06:19:12;;;;;;;4.55;1.08;;;4.40;84.80;;;;;;4949814;29;20019;-87
2021/04/26 06:21:39;;;;;;;5.40;1.23;;;4.60;84.50;;;;;;4946959;28;20111;-87
2021/04/26 06:24:08;;;;;;;6.07;1.08;;;4.70;84.10;;;;;;4941064;28;20491;-87
2021/04/26 06:26:42;;;;;;;9.20;1.15;;;4.70;83.70;;;;;;4958611;29;20042;-88
2021/04/26 06:29:14;;;;;;;7.10;2.67;;;4.90;83.50;;;;;;4944524;29;20413;-86
2021/04/26 06:31:42;;;;;;;7.32;1.40;;;5.00;83.20;;;;;;4970472;28;20038;-87
2021/04/26 06:34:09;;;;;;;8.60;1.40;;;5.10;82.90;;;;;;4940730;28;20032;-86
2021/04/26 06:36:42;;;;;;;6.07;1.30;;;5.30;82.60;;;;;;4945296;29;20027;-87
2021/04/26 06:39:09;;;;;;;9.82;1.20;;;5.40;82.00;;;;;;4944049;29;20035;-87
2021/04/26 06:41:35;;;;;;;4.35;1.20;;;5.50;81.50;;;;;;4945710;28;20051;-86
2021/04/26 06:44:03;;;;;;;5.05;1.17;;;5.60;80.80;;;;;;4952779;28;20070;-86
2021/04/26 06:46:30;;;;;;;5.82;1.50;;;5.80;79.70;;;;;;4965165;28;20034;-87
2021/04/26 06:48:55;;;;;;;5.82;1.00;;;5.90;78.90;;;;;;4965074;28;20028;-87
2021/04/26 06:51:24;;;;;;;4.15;0.90;;;6.00;78.70;;;;;;4945766;29;20453;-88
2021/04/26 06:53:50;;;;;;;3.63;0.77;;;6.10;78.20;;;;;;4948595;28;20035;-86
2021/04/26 06:56:15;;;;;;;4.68;0.93;;;6.20;76.70;;;;;;4954163;28;20047;-86
2021/04/26 06:58:41;;;;;;;4.00;0.75;;;6.30;76.10;;;;;;4952452;28;20408;-87
2021/04/26 07:01:06;;;;;;;5.97;0.82;;;6.40;74.80;;;;;;4952853;28;20465;-87
2021/04/26 07:03:32;;;;;;;9.38;1.77;;;6.40;74.70;;;;;;4951670;28;20020;-87
2021/04/26 07:06:03;;;;;;;5.75;1.00;;;6.50;74.80;;;;;;4953028;28;20372;-87
2021/04/26 07:08:29;;;;;;;3.95;1.08;;;6.60;74.40;;;;;;4950305;29;20502;-87
2021/04/26 07:11:06;;;;;;;4.10;0.90;;;6.70;73.70;;;;;;4933631;29;20083;-87
2021/04/26 07:13:31;;;;;;;6.50;1.00;;;6.80;73.60;;;;;;4951378;28;20023;-87
2021/04/26 07:15:57;;;;;;;2.90;1.05;;;6.80;72.90;;;;;;4959258;28;20102;-86
2021/04/26 07:18:22;;;;;;;6.95;0.90;;;6.90;73.00;;;;;;4953003;28;20122;-87
2021/04/26 07:20:50;;;;;;;5.60;1.17;;;7.00;73.00;;;;;;4961280;28;20042;-88
2021/04/26 07:23:18;;;;;;;5.43;1.10;;;7.10;72.50;;;;;;4971331;28;20071;-88
2021/04/26 07:25:48;;;;;;;3.30;1.17;;;7.30;72.40;;;;;;4949614;28;20034;-87
2021/04/26 07:28:16;;;;;;;6.15;0.98;;;7.40;72.60;;;;;;4962783;28;20514;-88
2021/04/26 07:30:46;;;;;;;7.20;0.90;;;7.60;71.40;;;;;;4967187;28;20035;-87
2021/04/26 07:33:14;;;;;;;3.22;0.70;;;7.60;69.90;;;;;;4952450;29;20038;-89
2021/04/26 07:35:39;;;;;;;2.97;0.80;;;7.70;69.20;;;;;;4945762;29;20491;-87
2021/04/26 07:38:05;;;;;;;2.67;0.80;;;7.60;68.40;;;;;;4964912;28;20040;-87
2021/04/26 07:40:30;;;;;;;4.70;0.82;;;7.70;67.90;;;;;;4949315;29;20031;-87
2021/04/26 07:42:56;;;;;;;3.75;0.80;;;7.70;67.10;;;;;;4955100;28;20451;-87
2021/04/26 07:45:23;;;;;;;4.38;0.80;;;7.70;67.50;;;;;;4936265;28;20518;-87
2021/04/26 07:47:54;;;;;;;5.32;1.30;;;7.80;67.40;;;;;;4945023;28;20031;-87
2021/04/26 07:50:20;;;;;;;3.83;0.80;;;7.80;67.30;;;;;;4965028;28;20020;-87
2021/04/26 07:52:47;;;;;;;3.88;0.70;;;7.90;67.30;;;;;;4950240;29;20302;-87
2021/04/26 07:55:13;;;;;;;3.80;0.85;;;8.10;67.30;;;;;;4954549;28;20075;-85
2021/04/26 07:57:41;;;;;;;5.57;0.80;;;8.20;66.20;;;;;;4954166;28;20032;-85
2021/04/26 08:00:09;;;;;;;3.75;0.70;;;8.20;65.70;;;;;;4936168;29;20032;-86
2021/04/26 08:02:34;;;;;;;4.32;0.90;;;8.20;65.50;;;;;;4951491;28;20023;-86
2021/04/26 08:05:00;;;;;;;3.25;0.73;;;8.30;64.90;;;;;;4935288;29;20024;-85
2021/04/26 08:07:25;;;;;;;2.50;0.60;;;8.30;64.50;;;;;;4936801;29;20507;-85
2021/04/26 08:09:51;;;;;;;3.40;0.80;;;8.40;64.30;;;;;;4953407;28;20134;-86
2021/04/26 08:12:18;;;;;;;4.25;0.80;;;8.50;63.90;;;;;;4951065;28;20486;-86
2021/04/26 08:14:44;;;;;;;3.67;0.85;;;8.60;64.00;;;;;;4953987;29;20396;-86
2021/04/26 08:17:10;;;;;;;1.88;0.70;;;8.70;63.20;;;;;;4951622;28;20031;-87
2021/04/26 08:19:41;;;;;;;5.72;0.63;;;8.80;63.10;;;;;;4942891;29;20035;-88
2021/04/26 08:22:11;;;;;;;4.70;0.90;;;9.00;62.50;;;;;;4942115;29;20029;-88
2021/04/26 08:24:37;;;;;;;3.83;0.80;;;9.10;60.80;;;;;;4939278;29;20515;-88
2021/04/26 08:27:02;;;;;;;4.25;1.15;;;9.10;61.10;;;;;;4951012;28;20039;-88
2021/04/26 08:29:30;;;;;;;4.05;0.85;;;9.20;60.70;;;;;;4953296;28;20182;-88
2021/04/26 08:32:05;;;;;;;5.35;0.90;;;9.30;60.50;;;;;;4950280;28;20050;-87
2021/04/26 08:34:30;;;;;;;4.53;0.85;;;9.30;59.60;;;;;;4935591;29;20035;-87
2021/04/26 08:36:56;;;;;;;2.55;0.90;;;9.40;59.60;;;;;;4936677;29;20028;-87
2021/04/26 08:39:21;;;;;;;2.95;0.98;;;9.50;59.70;;;;;;4951691;28;20024;-87
2021/04/26 08:41:47;;;;;;;4.00;0.98;;;9.60;59.50;;;;;;4950770;28;20040;-87
2021/04/26 08:44:16;;;;;;;2.45;0.77;;;9.60;59.70;;;;;;4952278;29;20505;-87
2021/04/26 08:46:44;;;;;;;7.57;0.70;;;9.70;60.00;;;;;;4937339;29;20047;-87
2021/04/26 08:49:16;;;;;;;5.47;0.98;;;9.80;60.10;;;;;;4947097;29;20023;-87
2021/04/26 08:51:45;;;;;;;2.38;0.90;;;9.90;59.50;;;;;;4969956;28;20484;-87
2021/04/26 08:54:14;;;;;;;2.25;0.65;;;10.00;58.20;;;;;;4968227;28;20031;-87
2021/04/26 08:56:40;;;;;;;4.25;1.33;;;10.00;58.70;;;;;;4968685;28;20032;-87
2021/04/26 08:59:10;;;;;;;5.03;1.08;;;10.10;58.80;;;;;;4961109;28;20028;-86
2021/04/26 09:01:39;;;;;;;5.80;0.73;;;10.20;57.80;;;;;;4945733;29;20088;-87
2021/04/26 09:04:10;;;;;;;4.10;1.05;;;10.30;57.10;;;;;;4938163;29;20020;-87
2021/04/26 09:07:00;;;;;;;2.72;0.70;;;10.30;56.50;;;;;;4937649;29;20031;-87
2021/04/26 09:09:44;;;;;;;5.03;0.80;;;10.40;56.60;;;;;;4962454;28;20034;-87
2021/04/26 09:12:11;;;;;;;5.20;1.00;;;10.50;56.10;;;;;;4958331;28;20539;-87
2021/04/26 09:14:45;;;;;;;7.38;1.30;;;10.60;56.10;;;;;;4950027;28;20557;-87
2021/04/26 09:17:32;;;;;;;3.13;1.20;;;10.70;55.60;;;;;;4951129;29;20035;-87
2021/04/26 09:20:14;;;;;;;2.90;0.98;;;10.80;55.80;;;;;;4956744;28;20105;-86
2021/04/26 09:22:42;;;;;;;2.60;1.13;;;10.80;54.40;;;;;;4962180;28;20035;-87
2021/04/26 09:25:21;;;;;;;6.80;1.58;;;10.80;54.90;;;;;;4943005;29;20043;-87
2021/04/26 09:28:20;;;;;;;5.18;0.82;;;10.80;53.20;;;;;;4965277;28;20134;-87
2021/04/26 09:30:57;;;;;;;3.25;1.08;;;10.90;53.30;;;;;;4955048;28;20032;-87
2021/04/26 09:33:33;;;;;;;4.85;0.98;;;11.00;53.30;;;;;;4947456;29;20057;-87
2021/04/26 09:36:19;;;;;;;2.65;0.98;;;11.10;53.50;;;;;;4954195;29;20071;-86
2021/04/26 09:38:49;;;;;;;5.47;1.00;;;11.20;52.60;;;;;;4946505;29;20074;-86
2021/04/26 09:41:19;;;;;;;3.63;1.20;;;11.20;51.20;;;;;;4939956;29;20035;-86
2021/04/26 09:44:05;;;;;;;4.72;1.13;;;11.20;51.10;;;;;;4951174;29;20031;-87
2021/04/26 09:46:46;;;;;;;4.13;1.13;;;11.30;51.60;;;;;;4939803;29;20480;-86
2021/04/26 09:49:15;;;;;;;4.10;1.08;;;11.40;51.60;;;;;;4939303;29;20020;-87
2021/04/26 09:51:43;;;;;;;2.63;1.23;;;11.50;51.30;;;;;;4958063;28;20031;-87
2021/04/26 09:54:11;;;;;;;3.22;0.95;;;11.60;50.20;;;;;;4951150;28;20045;-87
2021/04/26 09:56:44;;;;;;;3.35;1.20;;;11.60;49.80;;;;;;4941762;29;20028;-87
2021/04/26 09:59:10;;;;;;;;;;;11.60;48.70;;;;;;4949811;28;20110;-87
2021/04/26 10:01:45;;;;;;;4.07;1.10;;;11.60;49.90;;;;;;4949581;29;19960;-87
2021/04/26 10:04:16;;;;;;;5.07;0.98;;;11.90;50.20;;;;;;4943957;28;20023;-87
2021/04/26 10:06:42;;;;;;;3.88;1.02;;;12.10;49.90;;;;;;4949372;29;20042;-87
2021/04/26 10:09:11;;;;;;;2.88;0.90;;;12.20;49.50;;;;;;4941311;29;20031;-85
2021/04/26 10:11:42;;;;;;;5.40;1.33;;;12.30;49.50;;;;;;4952628;28;20047;-87
2021/04/26 10:14:15;;;;;;;2.88;0.80;;;12.40;48.20;;;;;;4953922;28;20035;-87
2021/04/26 10:16:53;;;;;;;;;;;12.40;48.20;;;;;;4949129;28;20476;-87
2021/04/26 10:19:34;;;;;;;4.00;0.73;;;12.50;48.90;;;;;;4939101;29;19918;-87
2021/04/26 10:22:02;;;;;;;3.85;1.17;;;12.60;48.70;;;;;;4937210;29;20480;-87
2021/04/26 10:24:31;;;;;;;3.78;1.05;;;12.60;47.00;;;;;;4939127;29;20043;-86
2021/04/26 10:27:06;;;;;;;4.35;1.27;;;12.60;47.00;;;;;;4938006;29;20020;-86
2021/04/26 10:29:34;;;;;;;5.10;1.02;;;12.50;46.00;;;;;;4937719;29;20035;-87
2021/04/26 10:32:06;;;;;;;7.28;1.02;;;12.40;46.40;;;;;;4936937;29;20028;-86
2021/04/26 10:34:42;;;;;;;3.83;0.88;;;12.50;47.00;;;;;;4937753;29;20030;-87
2021/04/26 10:37:18;;;;;;;4.90;1.15;;;12.60;46.60;;;;;;4952962;28;20031;-87
2021/04/26 10:39:58;;;;;;;3.72;1.25;;;12.70;46.40;;;;;;4958136;28;20031;-88
2021/04/26 10:42:41;;;;;;;3.00;0.68;;;12.50;45.80;;;;;;4970191;28;20027;-86
2021/04/26 10:45:13;;;;;;;;;;;12.50;47.10;;;;;;4956121;29;20102;-87
2021/04/26 10:47:44;;;;;;;4.28;1.10;;;12.60;47.00;;;;;;4949341;29;20386;-87
2021/04/26 10:50:16;;;;;;;4.10;1.10;;;12.60;45.50;;;;;;4936806;29;20123;-87
2021/04/26 10:52:43;;;;;;;5.60;1.52;;;12.60;46.20;;;;;;4937673;29;20280;-87
2021/04/26 10:55:34;;;;;;;3.38;1.10;;;12.50;44.80;;;;;;4952533;28;20444;-87
2021/04/26 10:58:19;;;;;;;5.10;0.90;;;12.40;45.60;;;;;;4945625;29;20023;-87
2021/04/26 11:00:45;;;;;;;2.45;0.88;;;12.40;46.20;;;;;;4943374;29;20036;-87
2021/04/26 11:03:17;;;;;;;2.22;1.02;;;12.60;46.50;;;;;;4949031;28;20030;-87
2021/04/26 11:05:53;;;;;;;4.50;0.88;;;12.70;46.30;;;;;;4962007;28;20090;-87
2021/04/26 11:08:29;;;;;;;2.78;1.00;;;12.80;46.80;;;;;;4947720;29;20045;-87
2021/04/26 11:14:02;;;;;;;2.20;0.85;;;13.00;45.20;;;;;;4929769;29;20034;-87
2021/04/26 11:16:51;;;;;;;4.35;1.05;;;13.00;46.40;;;;;;4936279;29;20051;-87
2021/04/26 11:19:19;;;;;;;2.78;0.82;;;13.20;46.20;;;;;;4947560;29;20118;-87
2021/04/26 11:21:58;;;;;;;6.13;1.15;;;13.30;46.20;;;;;;4937386;29;20034;-88
2021/04/26 11:24:24;;;;;;;2.75;1.00;;;13.40;46.00;;;;;;4920928;29;20484;-86
2021/04/26 11:27:23;;;;;;;4.38;0.90;;;13.50;44.90;;;;;;4956253;29;20030;-87
2021/04/26 11:29:57;;;;;;;5.85;1.33;;;13.20;44.10;;;;;;4922282;28;20035;-86
2021/04/26 11:32:27;;;;;;;3.40;1.05;;;13.00;43.80;;;;;;4943126;29;20135;-88
2021/04/26 11:34:59;;;;;;;6.63;1.27;;;12.80;44.00;;;;;;4932654;29;20055;-87
2021/04/26 11:37:35;;;;;;;9.88;1.98;;;12.70;44.10;;;;;;4943960;29;20046;-87
2021/04/26 11:40:13;;;;;;;4.75;1.60;;;12.70;45.10;;;;;;4973521;28;20054;-87
2021/04/26 11:42:39;;;;;;;4.45;1.38;;;12.80;45.40;;;;;;4956063;28;20480;-87
2021/04/26 11:45:10;;;;;;;5.47;1.33;;;12.90;45.70;;;;;;4942890;28;20027;-87
2021/04/26 11:47:36;;;;;;;3.50;1.15;;;13.00;44.90;;;;;;4948513;29;20027;-88
2021/04/26 11:50:04;;;;;;;3.20;1.17;;;13.00;44.60;;;;;;4955999;28;20031;-88
2021/04/26 11:52:32;;;;;;;3.85;1.00;;;13.10;44.90;;;;;;4945395;28;20042;-88
2021/04/26 11:55:17;;;;;;;5.53;1.20;;;13.10;45.10;;;;;;4936345;29;20032;-88
2021/04/26 11:57:56;;;;;;;3.13;1.10;;;13.20;44.20;;;;;;4962349;28;20118;-85
2021/04/26 12:00:29;;;;;;;6.35;1.15;;;13.10;44.60;;;;;;4955540;28;20065;-91
2021/04/26 12:03:08;;;;;;;3.17;1.00;;;13.20;44.50;;;;;;4960157;28;20035;-87
2021/04/26 12:05:34;;;;;;;4.95;1.25;;;13.20;43.40;;;;;;4938846;29;20059;-87
2021/04/26 12:08:00;;;;;;;4.10;1.20;;;13.10;44.00;;;;;;4952771;29;20027;-87
2021/04/26 12:10:32;;;;;;;3.53;0.80;;;13.20;44.80;;;;;;4968841;28;20039;-87
2021/04/26 12:13:02;;;;;;;4.15;1.52;;;13.30;45.20;;;;;;4938662;28;20028;-87
2021/04/26 12:15:35;;;;;;;5.05;1.40;;;13.60;45.10;;;;;;4939558;28;20191;-87
2021/04/26 12:18:03;;;;;;;3.30;0.90;;;13.70;43.40;;;;;;4934916;28;20036;-86
2021/04/26 12:20:33;;;;;;;5.00;1.40;;;13.50;44.30;;;;;;4951028;28;20043;-88
2021/04/26 12:23:06;;;;;;;4.28;1.15;;;13.60;44.70;;;;;;4936452;29;20020;-88
2021/04/26 12:25:38;;;;;;;3.75;1.30;;;13.70;44.40;;;;;;4936688;29;20091;-88
2021/04/26 12:28:09;;;;;;;6.20;1.30;;;13.90;44.50;;;;;;4936139;29;20028;-87
2021/04/26 12:30:46;;;;;;;3.63;1.30;;;14.00;44.30;;;;;;4938312;29;20032;-87
2021/04/26 12:33:32;;;;;;;5.63;1.23;;;14.00;44.00;;;;;;4951231;29;20034;-87
2021/04/26 12:36:01;;;;;;;4.30;1.10;;;14.10;44.80;;;;;;4958834;28;20040;-86
2021/04/26 12:38:35;;;;;;;6.93;1.20;;;14.10;44.20;;;;;;4955294;28;20031;-87
2021/04/26 12:41:01;;;;;;;4.63;1.10;;;14.20;43.90;;;;;;4971232;28;20101;-87
2021/04/26 12:43:31;;;;;;;2.55;1.25;;;14.00;42.90;;;;;;4973985;28;20110;-87
2021/04/26 12:46:09;;;;;;;2.83;0.98;;;13.90;43.30;;;;;;4965385;28;20023;-87
2021/04/26 12:48:38;;;;;;;3.22;1.00;;;13.80;43.30;;;;;;4955587;28;20033;-87
2021/04/26 12:51:06;;;;;;;2.92;1.20;;;13.90;43.20;;;;;;4959474;28;20122;-87
2021/04/26 12:53:32;;;;;;;3.53;0.82;;;13.90;43.10;;;;;;4955239;28;20023;-87
2021/04/26 12:56:04;;;;;;;3.58;1.30;;;13.90;43.20;;;;;;4972109;28;20506;-87
2021/04/26 12:58:36;;;;;;;4.57;0.88;;;14.00;43.10;;;;;;4941005;29;20032;-87
2021/04/26 13:01:12;;;;;;;3.60;1.13;;;14.00;43.20;;;;;;4959498;28;20465;-87
2021/04/26 13:03:51;;;;;;;3.80;1.20;;;14.00;42.50;;;;;;4938530;29;20027;-88
2021/04/26 13:06:25;;;;;;;4.97;1.30;;;14.00;42.80;;;;;;4941110;29;20043;-87
2021/04/26 13:09:03;;;;;;;4.65;1.30;;;14.00;42.60;;;;;;4970065;28;20457;-92
2021/04/26 13:11:39;;;;;;;3.33;1.30;;;14.10;43.40;;;;;;4960665;28;20060;-88